Time;durP1;ratioP1;P1;durP2;ratioP2;P2;SDS_P1;SDS_P2;PMS_P1;PMS_P2;Temp;Humidity;BMP_temperature;BMP_pressure;BME280_temperature;BME280_humidity;BME280_pressure;Samples;Min_cycle;Max_cycle;Signal;HPM_P1;HPM_P2
2023/09/30 00:02:06;;;;;;;;;;;;;;;;;;5093008;28;19920;-62
2023/09/30 00:04:31;;;;;;;;;;;;;;;;;;5092777;28;19911;-61
2023/09/30 00:06:57;;;;;;;;;;;;;;;;;;5091505;28;20040;-62
2023/09/30 00:09:22;;;;;;;;;;;;;;;;;;5093461;28;20018;-61
2023/09/30 00:11:47;;;;;;;;;;;;;;;;;;5113046;28;20084;-61
2023/09/30 00:14:13;;;;;;;;;;;;;;;;;;5112873;28;20413;-62
2023/09/30 00:16:38;;;;;;;;;;;;;;;;;;5112870;28;19919;-61
2023/09/30 00:19:03;;;;;;;;;;;;;;;;;;5111694;28;19922;-62
2023/09/30 00:21:29;;;;;;;;;;;;;;;;;;5112805;28;20030;-61
2023/09/30 00:23:54;;;;;;;;;;;;;;;;;;5111858;28;19922;-61
2023/09/30 00:26:20;;;;;;;;;;;;;;;;;;5112736;28;19930;-61
2023/09/30 00:28:46;;;;;;;;;;;;;;;;;;5112952;28;19959;-61
2023/09/30 00:31:11;;;;;;;;;;;;;;;;;;5096169;28;19977;-61
2023/09/30 00:33:37;;;;;;;;;;;;;;;;;;5090802;28;20297;-62
2023/09/30 00:36:02;;;;;;;;;;;;;;;;;;5090860;28;19973;-61
2023/09/30 00:38:27;;;;;;;;;;;;;;;;;;5091036;28;20297;-61
2023/09/30 00:40:53;;;;;;;;;;;;;;;;;;5092063;28;19916;-62
2023/09/30 00:43:18;;;;;;;;;;;;;;;;;;5090265;28;19924;-61
2023/09/30 00:45:43;;;;;;;;;;;;;;;;;;5092254;28;20038;-62
2023/09/30 00:48:09;;;;;;;;;;;;;;;;;;5092343;28;20417;-63
2023/09/30 00:50:34;;;;;;;;;;;;;;;;;;5073966;28;20375;-61
2023/09/30 00:52:59;;;;;;;;;;;;;;;;;;5090318;28;20273;-61
2023/09/30 00:55:25;;;;;;;;;;;;;;;;;;5091994;28;19912;-61
2023/09/30 00:57:50;;;;;;;;;;;;;;;;;;5090695;28;19923;-62
2023/09/30 01:00:15;;;;;;;;;;;;;;;;;;5091649;28;19912;-61
2023/09/30 01:02:41;;;;;;;;;;;;;;;;;;5092207;28;19923;-61
2023/09/30 01:05:07;;;;;;;;;;;;;;;;;;5090573;28;19912;-63
2023/09/30 01:07:32;;;;;;;;;;;;;;;;;;5092036;28;19919;-59
2023/09/30 01:09:58;;;;;;;;;;;;;;;;;;5073352;28;19967;-61
2023/09/30 01:12:23;;;;;;;;;;;;;;;;;;5090338;28;19959;-61
2023/09/30 01:14:48;;;;;;;;;;;;;;;;;;5091788;28;20328;-62
2023/09/30 01:17:15;;;;;;;;;;;;;;;;;;5090517;28;19920;-61
2023/09/30 01:19:42;;;;;;;;;;;;;;;;;;5090610;28;20014;-63
2023/09/30 01:22:09;;;;;;;;;;;;;;;;;;5091828;28;19962;-61
2023/09/30 01:24:34;;;;;;;;;;;;;;;;;;5091766;28;19991;-61
2023/09/30 01:27:00;;;;;;;;;;;;;;;;;;5091806;28;19961;-61
2023/09/30 01:29:26;;;;;;;;;;;;;;;;;;5073391;28;19922;-61
2023/09/30 01:31:51;;;;;;;;;;;;;;;;;;5098671;28;19916;-61
2023/09/30 01:34:16;;;;;;;;;;;;;;;;;;5112005;28;19947;-60
2023/09/30 01:36:42;;;;;;;;;;;;;;;;;;5110724;28;19912;-62
2023/09/30 01:39:10;;;;;;;;;;;;;;;;;;5111936;28;20364;-62
2023/09/30 01:41:35;;;;;;;;;;;;;;;;;;5111877;28;20316;-60
2023/09/30 01:44:01;;;;;;;;;;;;;;;;;;5111967;28;19927;-61
2023/09/30 01:46:26;;;;;;;;;;;;;;;;;;5113261;28;20049;-61
2023/09/30 01:48:51;;;;;;;;;;;;;;;;;;5115739;28;19919;-61
2023/09/30 01:51:17;;;;;;;;;;;;;;;;;;5114231;28;19918;-60
2023/09/30 01:53:43;;;;;;;;;;;;;;;;;;5114501;28;20014;-60
2023/09/30 01:56:08;;;;;;;;;;;;;;;;;;5115631;28;19919;-61
2023/09/30 01:58:33;;;;;;;;;;;;;;;;;;5114442;28;20288;-60
2023/09/30 02:00:59;;;;;;;;;;;;;;;;;;5114289;28;19971;-61
2023/09/30 02:03:24;;;;;;;;;;;;;;;;;;5114504;28;19977;-62
2023/09/30 02:05:50;;;;;;;;;;;;;;;;;;5108502;28;19912;-63
2023/09/30 02:08:15;;;;;;;;;;;;;;;;;;5095443;28;19916;-62
2023/09/30 02:10:43;;;;;;;;;;;;;;;;;;5076442;28;20382;-64
2023/09/30 02:13:09;;;;;;;;;;;;;;;;;;5093231;28;19916;-63
2023/09/30 02:15:34;;;;;;;;;;;;;;;;;;5095004;28;19916;-63
2023/09/30 02:18:00;;;;;;;;;;;;;;;;;;5093835;28;19965;-61
2023/09/30 02:20:25;;;;;;;;;;;;;;;;;;5093917;28;19912;-64
2023/09/30 02:22:51;;;;;;;;;;;;;;;;;;5095095;28;19916;-62
2023/09/30 02:25:16;;;;;;;;;;;;;;;;;;5094833;28;19912;-63
2023/09/30 02:27:41;;;;;;;;;;;;;;;;;;5091888;28;19916;-64
2023/09/30 02:30:07;;;;;;;;;;;;;;;;;;5082984;28;19920;-64
2023/09/30 02:32:33;;;;;;;;;;;;;;;;;;5087216;28;20350;-63
2023/09/30 02:34:58;;;;;;;;;;;;;;;;;;5075756;28;19947;-64
2023/09/30 02:37:24;;;;;;;;;;;;;;;;;;5074485;28;19924;-63
2023/09/30 02:39:49;;;;;;;;;;;;;;;;;;5073058;28;19912;-63
2023/09/30 02:42:15;;;;;;;;;;;;;;;;;;5072710;28;20054;-63
2023/09/30 02:44:40;;;;;;;;;;;;;;;;;;5073020;28;20059;-62
2023/09/30 02:47:05;;;;;;;;;;;;;;;;;;5074229;28;20428;-63
2023/09/30 02:49:31;;;;;;;;;;;;;;;;;;5072938;28;19920;-63
2023/09/30 02:51:56;;;;;;;;;;;;;;;;;;5072658;28;19946;-60
2023/09/30 02:54:21;;;;;;;;;;;;;;;;;;5072777;28;19912;-60
2023/09/30 02:56:47;;;;;;;;;;;;;;;;;;5069698;28;19939;-62
2023/09/30 02:59:12;;;;;;;;;;;;;;;;;;5071338;28;20373;-61
2023/09/30 03:01:37;;;;;;;;;;;;;;;;;;5070235;28;19966;-61
2023/09/30 03:04:06;;;;;;;;;;;;;;;;;;5071645;28;20306;-59
2023/09/30 03:06:32;;;;;;;;;;;;;;;;;;5071765;28;20023;-60
2023/09/30 03:08:57;;;;;;;;;;;;;;;;;;5070513;28;20014;-59
2023/09/30 03:11:23;;;;;;;;;;;;;;;;;;5073554;28;19942;-61
2023/09/30 03:13:50;;;;;;;;;;;;;;;;;;5072316;28;19919;-61
2023/09/30 03:16:15;;;;;;;;;;;;;;;;;;5073496;28;19908;-59
2023/09/30 03:18:41;;;;;;;;;;;;;;;;;;5072337;28;19920;-61
2023/09/30 03:21:08;;;;;;;;;;;;;;;;;;5073454;28;19919;-61
2023/09/30 03:23:34;;;;;;;;;;;;;;;;;;5073364;28;20370;-60
2023/09/30 03:25:59;;;;;;;;;;;;;;;;;;5072629;28;20309;-59
2023/09/30 03:28:25;;;;;;;;;;;;;;;;;;5073100;28;19938;-59
2023/09/30 03:30:50;;;;;;;;;;;;;;;;;;5072113;28;20141;-60
2023/09/30 03:33:15;;;;;;;;;;;;;;;;;;5095582;28;19964;-59
2023/09/30 03:35:41;;;;;;;;;;;;;;;;;;5114061;28;19931;-61
2023/09/30 03:38:09;;;;;;;;;;;;;;;;;;5114134;28;19960;-60
2023/09/30 03:40:38;;;;;;;;;;;;;;;;;;5114006;28;19916;-61
2023/09/30 03:43:03;;;;;;;;;;;;;;;;;;5113692;28;20064;-62
2023/09/30 03:45:28;;;;;;;;;;;;;;;;;;5112408;28;20388;-60
2023/09/30 03:47:54;;;;;;;;;;;;;;;;;;5111960;28;19919;-61
2023/09/30 03:50:19;;;;;;;;;;;;;;;;;;5113391;28;20072;-61
2023/09/30 03:52:45;;;;;;;;;;;;;;;;;;5095299;28;19949;-61
2023/09/30 03:55:11;;;;;;;;;;;;;;;;;;5112239;28;20304;-61
2023/09/30 03:57:37;;;;;;;;;;;;;;;;;;5113548;28;19919;-60
2023/09/30 04:00:06;;;;;;;;;;;;;;;;;;5113226;28;20309;-61
2023/09/30 04:02:37;;;;;;;;;;;;;;;;;;5113429;28;20284;-60
2023/09/30 04:05:05;;;;;;;;;;;;;;;;;;5112537;28;19912;-62
2023/09/30 04:07:30;;;;;;;;;;;;;;;;;;5113776;28;20293;-62
2023/09/30 04:09:55;;;;;;;;;;;;;;;;;;5113299;28;19928;-62
2023/09/30 04:12:23;;;;;;;;;;;;;;;;;;5112910;28;19919;-61
2023/09/30 04:14:48;;;;;;;;;;;;;;;;;;5113203;28;19907;-61
2023/09/30 04:17:14;;;;;;;;;;;;;;;;;;5111626;28;19919;-61
2023/09/30 04:19:39;;;;;;;;;;;;;;;;;;5103670;28;20037;-61
2023/09/30 04:22:04;;;;;;;;;;;;;;;;;;5092561;28;19927;-61
2023/09/30 04:24:30;;;;;;;;;;;;;;;;;;5092477;28;20224;-60
2023/09/30 04:27:01;;;;;;;;;;;;;;;;;;5092671;28;19916;-60
2023/09/30 04:29:27;;;;;;;;;;;;;;;;;;5091689;28;19920;-59
2023/09/30 04:31:52;;;;;;;;;;;;;;;;;;5092306;28;19919;-61
2023/09/30 04:34:18;;;;;;;;;;;;;;;;;;5111968;28;19957;-60
2023/09/30 04:36:43;;;;;;;;;;;;;;;;;;5112703;28;19920;-60
2023/09/30 04:39:10;;;;;;;;;;;;;;;;;;5111138;28;19911;-60
2023/09/30 04:41:35;;;;;;;;;;;;;;;;;;5112413;28;20312;-60
2023/09/30 04:44:01;;;;;;;;;;;;;;;;;;5112376;28;19920;-60
2023/09/30 04:46:27;;;;;;;;;;;;;;;;;;5112471;28;19915;-63
2023/09/30 04:48:53;;;;;;;;;;;;;;;;;;5112317;27;20384;-60
2023/09/30 04:51:18;;;;;;;;;;;;;;;;;;5111140;28;19911;-60
2023/09/30 04:53:46;;;;;;;;;;;;;;;;;;5097132;28;20567;-60
2023/09/30 04:56:11;;;;;;;;;;;;;;;;;;5090633;28;19954;-60
2023/09/30 04:58:36;;;;;;;;;;;;;;;;;;5091894;28;19951;-59
2023/09/30 05:01:02;;;;;;;;;;;;;;;;;;5091807;28;19958;-61
2023/09/30 05:03:27;;;;;;;;;;;;;;;;;;5091634;28;20270;-61
2023/09/30 05:05:56;;;;;;;;;;;;;;;;;;5091804;28;19912;-61
2023/09/30 05:08:21;;;;;;;;;;;;;;;;;;5092070;28;19916;-62
2023/09/30 05:10:48;;;;;;;;;;;;;;;;;;5091822;28;19916;-61
2023/09/30 05:13:13;;;;;;;;;;;;;;;;;;5092044;28;19951;-61
2023/09/30 05:15:39;;;;;;;;;;;;;;;;;;5091964;28;19947;-62
2023/09/30 05:18:04;;;;;;;;;;;;;;;;;;5092065;28;20399;-62
2023/09/30 05:20:30;;;;;;;;;;;;;;;;;;5092646;28;19959;-62
2023/09/30 05:22:56;;;;;;;;;;;;;;;;;;5095831;28;19922;-63
2023/09/30 05:25:25;;;;;;;;;;;;;;;;;;5094862;28;19951;-66
2023/09/30 05:27:51;;;;;;;;;;;;;;;;;;5095539;28;19915;-61
2023/09/30 05:30:16;;;;;;;;;;;;;;;;;;5094036;28;19922;-62
2023/09/30 05:32:41;;;;;;;;;;;;;;;;;;5102133;28;19915;-62
2023/09/30 05:35:13;;;;;;;;;;;;;;;;;;5114493;28;20384;-60
2023/09/30 05:37:38;;;;;;;;;;;;;;;;;;5115780;28;19957;-63
2023/09/30 05:40:09;;;;;;;;;;;;;;;;;;5115953;28;19916;-62
2023/09/30 05:42:35;;;;;;;;;;;;;;;;;;5116042;28;20376;-65
2023/09/30 05:45:01;;;;;;;;;;;;;;;;;;5115577;28;19964;-63
2023/09/30 05:47:26;;;;;;;;;;;;;;;;;;5115968;28;19915;-64
2023/09/30 05:49:51;;;;;;;;;;;;;;;;;;5114409;28;20014;-63
2023/09/30 05:52:16;;;;;;;;;;;;;;;;;;5115730;28;20349;-61
2023/09/30 05:54:42;;;;;;;;;;;;;;;;;;5115670;28;19957;-62
2023/09/30 05:57:08;;;;;;;;;;;;;;;;;;5115912;28;19920;-62
2023/09/30 05:59:34;;;;;;;;;;;;;;;;;;5116175;28;20361;-62
2023/09/30 06:01:59;;;;;;;;;;;;;;;;;;5115733;28;19970;-61
2023/09/30 06:04:25;;;;;;;;;;;;;;;;;;5115630;28;19911;-61
2023/09/30 06:06:50;;;;;;;;;;;;;;;;;;5115686;28;20006;-62
2023/09/30 06:09:16;;;;;;;;;;;;;;;;;;5115308;28;20392;-61
2023/09/30 06:11:41;;;;;;;;;;;;;;;;;;5115313;28;19915;-61
2023/09/30 06:14:07;;;;;;;;;;;;;;;;;;5115220;28;20467;-61
2023/09/30 06:16:32;;;;;;;;;;;;;;;;;;5115468;28;20414;-61
2023/09/30 06:18:57;;;;;;;;;;;;;;;;;;5114427;28;20284;-64
2023/09/30 06:21:24;;;;;;;;;;;;;;;;;;5115104;28;19929;-62
2023/09/30 06:23:51;;;;;;;;;;;;;;;;;;5114901;28;19911;-61
2023/09/30 06:26:17;;;;;;;;;;;;;;;;;;5115037;28;19958;-61
2023/09/30 06:28:42;;;;;;;;;;;;;;;;;;5114381;28;19969;-61
2023/09/30 06:31:07;;;;;;;;;;;;;;;;;;5114299;28;19958;-59
2023/09/30 06:33:33;;;;;;;;;;;;;;;;;;5114730;28;19918;-63
2023/09/30 06:36:01;;;;;;;;;;;;;;;;;;5113269;28;19981;-62
2023/09/30 06:38:27;;;;;;;;;;;;;;;;;;5113913;28;20380;-62
2023/09/30 06:40:53;;;;;;;;;;;;;;;;;;5115087;28;19948;-60
2023/09/30 06:43:19;;;;;;;;;;;;;;;;;;5114467;28;20358;-62
2023/09/30 06:45:46;;;;;;;;;;;;;;;;;;5114625;28;19968;-61
2023/09/30 06:48:12;;;;;;;;;;;;;;;;;;5114684;28;19915;-62
2023/09/30 06:50:38;;;;;;;;;;;;;;;;;;5114124;28;19920;-62
2023/09/30 06:53:05;;;;;;;;;;;;;;;;;;5114725;28;20331;-60
2023/09/30 06:55:31;;;;;;;;;;;;;;;;;;5114248;28;19918;-62
2023/09/30 06:57:57;;;;;;;;;;;;;;;;;;5114581;28;19915;-61
2023/09/30 07:00:22;;;;;;;;;;;;;;;;;;5114213;28;19980;-62
2023/09/30 07:02:47;;;;;;;;;;;;;;;;;;5114572;28;19916;-62
2023/09/30 07:05:12;;;;;;;;;;;;;;;;;;5113938;28;19911;-62
2023/09/30 07:07:39;;;;;;;;;;;;;;;;;;5112763;28;19912;-61
2023/09/30 07:10:04;;;;;;;;;;;;;;;;;;5113799;28;19942;-62
2023/09/30 07:12:31;;;;;;;;;;;;;;;;;;5114298;28;20257;-61
2023/09/30 07:14:57;;;;;;;;;;;;;;;;;;5113743;28;19912;-61
2023/09/30 07:17:22;;;;;;;;;;;;;;;;;;5114079;28;19916;-62
2023/09/30 07:19:48;;;;;;;;;;;;;;;;;;5113826;28;20265;-60
2023/09/30 07:22:13;;;;;;;;;;;;;;;;;;5113797;28;19923;-61
2023/09/30 07:24:39;;;;;;;;;;;;;;;;;;5113619;28;20296;-61
2023/09/30 07:27:04;;;;;;;;;;;;;;;;;;5113726;28;19996;-61
2023/09/30 07:29:30;;;;;;;;;;;;;;;;;;5113467;28;19945;-61
2023/09/30 07:31:55;;;;;;;;;;;;;;;;;;5112843;28;19973;-62
2023/09/30 07:34:21;;;;;;;;;;;;;;;;;;5113624;28;19965;-62
2023/09/30 07:36:46;;;;;;;;;;;;;;;;;;5113364;28;19922;-62
2023/09/30 07:39:11;;;;;;;;;;;;;;;;;;5113262;28;20006;-60
2023/09/30 07:41:37;;;;;;;;;;;;;;;;;;5113373;28;19930;-59
2023/09/30 07:44:02;;;;;;;;;;;;;;;;;;5112266;28;19923;-60
2023/09/30 07:46:28;;;;;;;;;;;;;;;;;;5113193;28;20265;-61
2023/09/30 07:48:55;;;;;;;;;;;;;;;;;;5111763;28;20304;-61
2023/09/30 07:51:20;;;;;;;;;;;;;;;;;;5113141;28;19958;-62
2023/09/30 07:53:45;;;;;;;;;;;;;;;;;;5113051;28;19965;-61
2023/09/30 07:56:11;;;;;;;;;;;;;;;;;;5113204;28;19912;-60
2023/09/30 07:58:36;;;;;;;;;;;;;;;;;;5112901;28;19912;-61
2023/09/30 08:01:01;;;;;;;;;;;;;;;;;;5112949;28;19918;-61
2023/09/30 08:03:27;;;;;;;;;;;;;;;;;;5092451;28;19919;-60
2023/09/30 08:05:52;;;;;;;;;;;;;;;;;;5091240;28;20018;-61
2023/09/30 08:08:17;;;;;;;;;;;;;;;;;;5093046;28;20014;-62
2023/09/30 08:10:43;;;;;;;;;;;;;;;;;;5092683;28;19920;-62
2023/09/30 08:13:09;;;;;;;;;;;;;;;;;;5092787;28;19916;-62
2023/09/30 08:15:35;;;;;;;;;;;;;;;;;;5092465;28;20291;-63
2023/09/30 08:18:02;;;;;;;;;;;;;;;;;;5092568;28;19922;-61
2023/09/30 08:20:27;;;;;;;;;;;;;;;;;;5092528;28;20014;-60
2023/09/30 08:22:53;;;;;;;;;;;;;;;;;;5092460;28;20010;-62
2023/09/30 08:25:18;;;;;;;;;;;;;;;;;;5091252;28;20368;-60
2023/09/30 08:27:49;;;;;;;;;;;;;;;;;;5092648;28;19981;-61
2023/09/30 08:30:14;;;;;;;;;;;;;;;;;;5092596;28;20296;-62
2023/09/30 08:32:40;;;;;;;;;;;;;;;;;;5098320;28;19915;-60
2023/09/30 08:35:05;;;;;;;;;;;;;;;;;;5112640;28;19957;-61
2023/09/30 08:37:31;;;;;;;;;;;;;;;;;;5111178;28;20330;-62
2023/09/30 08:39:56;;;;;;;;;;;;;;;;;;5112736;28;19954;-62
2023/09/30 08:42:21;;;;;;;;;;;;;;;;;;5111331;28;19916;-61
2023/09/30 08:44:47;;;;;;;;;;;;;;;;;;5092952;28;19943;-61
2023/09/30 08:47:12;;;;;;;;;;;;;;;;;;5092263;28;19916;-62
2023/09/30 08:49:39;;;;;;;;;;;;;;;;;;5092123;28;19919;-60
2023/09/30 08:52:04;;;;;;;;;;;;;;;;;;5090827;28;19923;-61
2023/09/30 08:54:29;;;;;;;;;;;;;;;;;;5091996;28;19912;-61
2023/09/30 08:56:55;;;;;;;;;;;;;;;;;;5091952;28;19919;-62
2023/09/30 08:59:20;;;;;;;;;;;;;;;;;;5091840;28;19912;-62
2023/09/30 09:01:45;;;;;;;;;;;;;;;;;;5092025;28;19916;-62
2023/09/30 09:04:11;;;;;;;;;;;;;;;;;;5090540;28;19984;-63
2023/09/30 09:06:36;;;;;;;;;;;;;;;;;;5092260;28;19967;-61
2023/09/30 09:09:01;;;;;;;;;;;;;;;;;;5091858;28;19915;-61
2023/09/30 09:11:29;;;;;;;;;;;;;;;;;;5091972;28;19916;-62
2023/09/30 09:14:00;;;;;;;;;;;;;;;;;;5090111;28;19922;-61
2023/09/30 09:16:25;;;;;;;;;;;;;;;;;;5090454;28;19916;-61
2023/09/30 09:18:51;;;;;;;;;;;;;;;;;;5091047;28;19912;-62
2023/09/30 09:21:17;;;;;;;;;;;;;;;;;;5090685;28;19957;-61
2023/09/30 09:23:42;;;;;;;;;;;;;;;;;;5090762;28;19920;-61
2023/09/30 09:26:08;;;;;;;;;;;;;;;;;;5091547;28;20004;-61
2023/09/30 09:28:33;;;;;;;;;;;;;;;;;;5091984;28;19912;-60
2023/09/30 09:30:58;;;;;;;;;;;;;;;;;;5091735;28;20334;-61
2023/09/30 09:33:24;;;;;;;;;;;;;;;;;;5103708;28;20160;-62
2023/09/30 09:35:49;;;;;;;;;;;;;;;;;;5110631;28;19937;-61
2023/09/30 09:38:15;;;;;;;;;;;;;;;;;;5097279;28;19924;-61
2023/09/30 09:40:40;;;;;;;;;;;;;;;;;;5091603;28;20345;-61
2023/09/30 09:43:05;;;;;;;;;;;;;;;;;;5091885;28;19969;-61
2023/09/30 09:45:32;;;;;;;;;;;;;;;;;;5090064;28;19920;-60
2023/09/30 09:47:57;;;;;;;;;;;;;;;;;;5091832;28;19962;-61
2023/09/30 09:50:23;;;;;;;;;;;;;;;;;;5073245;28;19920;-61
2023/09/30 09:52:50;;;;;;;;;;;;;;;;;;5091733;28;19916;-62
2023/09/30 09:55:15;;;;;;;;;;;;;;;;;;5091679;28;19916;-62
2023/09/30 09:57:40;;;;;;;;;;;;;;;;;;5091658;28;19916;-62
2023/09/30 10:00:11;;;;;;;;;;;;;;;;;;5090485;28;19958;-62
2023/09/30 10:02:37;;;;;;;;;;;;;;;;;;5091220;28;19942;-63
2023/09/30 10:05:02;;;;;;;;;;;;;;;;;;5090786;28;20414;-63
2023/09/30 10:07:28;;;;;;;;;;;;;;;;;;5093538;28;19916;-62
2023/09/30 10:09:53;;;;;;;;;;;;;;;;;;5086160;28;19926;-64
2023/09/30 10:12:25;;;;;;;;;;;;;;;;;;5085122;28;19916;-63
2023/09/30 10:14:50;;;;;;;;;;;;;;;;;;5083990;28;19913;-65
2023/09/30 10:17:16;;;;;;;;;;;;;;;;;;5081976;28;20002;-65
2023/09/30 10:19:41;;;;;;;;;;;;;;;;;;5083622;28;19947;-65
2023/09/30 10:22:06;;;;;;;;;;;;;;;;;;5086693;28;19919;-64
2023/09/30 10:24:32;;;;;;;;;;;;;;;;;;5094686;28;19916;-64
2023/09/30 10:26:57;;;;;;;;;;;;;;;;;;5094795;28;20422;-64
2023/09/30 10:29:23;;;;;;;;;;;;;;;;;;5093567;28;19920;-65
2023/09/30 10:31:49;;;;;;;;;;;;;;;;;;5095036;28;20169;-63
2023/09/30 10:34:14;;;;;;;;;;;;;;;;;;5113670;28;20010;-63
2023/09/30 10:36:40;;;;;;;;;;;;;;;;;;5114916;28;19919;-63
2023/09/30 10:39:08;;;;;;;;;;;;;;;;;;5114756;28;19919;-63
2023/09/30 10:41:34;;;;;;;;;;;;;;;;;;5114309;28;19911;-63
2023/09/30 10:44:00;;;;;;;;;;;;;;;;;;5114557;28;19926;-64
2023/09/30 10:46:26;;;;;;;;;;;;;;;;;;5114716;28;20400;-63
2023/09/30 10:48:51;;;;;;;;;;;;;;;;;;5113183;28;19920;-62
2023/09/30 10:51:20;;;;;;;;;;;;;;;;;;5114595;28;19908;-65
2023/09/30 10:53:46;;;;;;;;;;;;;;;;;;5114553;28;19951;-65
2023/09/30 10:56:11;;;;;;;;;;;;;;;;;;5113249;28;19973;-63
2023/09/30 10:58:37;;;;;;;;;;;;;;;;;;5114625;28;19912;-66
2023/09/30 11:01:04;;;;;;;;;;;;;;;;;;5113069;28;19950;-67
2023/09/30 11:03:30;;;;;;;;;;;;;;;;;;5096095;28;20481;-64
2023/09/30 11:05:55;;;;;;;;;;;;;;;;;;5095989;28;20207;-67
2023/09/30 11:08:21;;;;;;;;;;;;;;;;;;5114249;28;19923;-62
2023/09/30 11:10:47;;;;;;;;;;;;;;;;;;5114147;28;19920;-65
2023/09/30 11:13:12;;;;;;;;;;;;;;;;;;5104885;28;19916;-65
2023/09/30 11:15:38;;;;;;;;;;;;;;;;;;5078033;28;20006;-63
2023/09/30 11:18:03;;;;;;;;;;;;;;;;;;5080505;28;19920;-62
2023/09/30 11:20:28;;;;;;;;;;;;;;;;;;5087006;28;19912;-63
2023/09/30 11:22:54;;;;;;;;;;;;;;;;;;5092306;28;20393;-62
2023/09/30 11:25:19;;;;;;;;;;;;;;;;;;5093401;28;19916;-62
2023/09/30 11:27:45;;;;;;;;;;;;;;;;;;5093544;28;20006;-63
2023/09/30 11:30:10;;;;;;;;;;;;;;;;;;5093559;28;19920;-62
2023/09/30 11:32:35;;;;;;;;;;;;;;;;;;5098646;28;19916;-63
2023/09/30 11:35:01;;;;;;;;;;;;;;;;;;5113668;28;19957;-62
2023/09/30 11:37:30;;;;;;;;;;;;;;;;;;5112911;28;20286;-62
2023/09/30 11:39:55;;;;;;;;;;;;;;;;;;5113673;28;19916;-65
2023/09/30 11:42:21;;;;;;;;;;;;;;;;;;5113740;28;19918;-64
2023/09/30 11:44:50;;;;;;;;;;;;;;;;;;5111399;28;19920;-63
2023/09/30 11:47:16;;;;;;;;;;;;;;;;;;5112724;28;20014;-63
2023/09/30 11:49:44;;;;;;;;;;;;;;;;;;5101099;28;20007;-63
2023/09/30 11:52:09;;;;;;;;;;;;;;;;;;5092221;28;19920;-62
2023/09/30 11:54:40;;;;;;;;;;;;;;;;;;5091684;28;19922;-68
2023/09/30 11:57:06;;;;;;;;;;;;;;;;;;5091892;28;19920;-63
2023/09/30 11:59:31;;;;;;;;;;;;;;;;;;5091499;28;19912;-64
2023/09/30 12:01:56;;;;;;;;;;;;;;;;;;5090336;28;19919;-61
2023/09/30 12:04:22;;;;;;;;;;;;;;;;;;5090774;28;19916;-62
2023/09/30 12:06:48;;;;;;;;;;;;;;;;;;5087754;28;20361;-62
2023/09/30 12:09:14;;;;;;;;;;;;;;;;;;5090963;28;19923;-64
2023/09/30 12:11:43;;;;;;;;;;;;;;;;;;5089885;28;19923;-61
2023/09/30 12:14:11;;;;;;;;;;;;;;;;;;5087970;28;19912;-62
2023/09/30 12:16:36;;;;;;;;;;;;;;;;;;5090414;28;19923;-60
2023/09/30 12:19:02;;;;;;;;;;;;;;;;;;5090615;28;20397;-61
2023/09/30 12:21:28;;;;;;;;;;;;;;;;;;5091427;28;20015;-61
2023/09/30 12:23:54;;;;;;;;;;;;;;;;;;5091290;28;19955;-62
2023/09/30 12:26:19;;;;;;;;;;;;;;;;;;5082007;28;19962;-64
2023/09/30 12:28:45;;;;;;;;;;;;;;;;;;5079601;28;19920;-63
2023/09/30 12:31:11;;;;;;;;;;;;;;;;;;5081199;28;20038;-63
2023/09/30 12:33:36;;;;;;;;;;;;;;;;;;5083868;28;19926;-62
2023/09/30 12:36:01;;;;;;;;;;;;;;;;;;5089686;28;20006;-62
2023/09/30 12:38:28;;;;;;;;;;;;;;;;;;5090792;28;19912;-62
2023/09/30 12:40:53;;;;;;;;;;;;;;;;;;5091201;28;19916;-62
2023/09/30 12:43:19;;;;;;;;;;;;;;;;;;5048968;28;1199986;-63
2023/09/30 12:45:45;;;;;;;;;;;;;;;;;;5091875;28;19915;-62
2023/09/30 12:48:10;;;;;;;;;;;;;;;;;;5092218;28;19919;-63
2023/09/30 12:50:36;;;;;;;;;;;;;;;;;;5091359;28;19924;-62
2023/09/30 12:53:01;;;;;;;;;;;;;;;;;;5092052;28;19912;-62
2023/09/30 12:55:26;;;;;;;;;;;;;;;;;;5092049;28;20342;-63
2023/09/30 12:57:53;;;;;;;;;;;;;;;;;;5091795;28;20281;-62
2023/09/30 13:00:18;;;;;;;;;;;;;;;;;;5091300;28;20388;-64
2023/09/30 13:02:44;;;;;;;;;;;;;;;;;;5091818;28;19951;-63
2023/09/30 13:05:09;;;;;;;;;;;;;;;;;;5091059;28;20018;-61
2023/09/30 13:07:35;;;;;;;;;;;;;;;;;;5091905;28;19951;-62
2023/09/30 13:10:00;;;;;;;;;;;;;;;;;;5091387;28;19985;-62
2023/09/30 13:12:26;;;;;;;;;;;;;;;;;;5091641;28;19945;-62
2023/09/30 13:14:53;;;;;;;;;;;;;;;;;;5091615;28;19912;-63
2023/09/30 13:17:18;;;;;;;;;;;;;;;;;;5091356;28;19919;-62
2023/09/30 13:19:44;;;;;;;;;;;;;;;;;;5091112;28;20132;-62
2023/09/30 13:22:09;;;;;;;;;;;;;;;;;;5090106;28;19912;-63
2023/09/30 13:24:39;;;;;;;;;;;;;;;;;;5090094;28;19920;-64
2023/09/30 13:27:05;;;;;;;;;;;;;;;;;;5089989;28;19912;-63
2023/09/30 13:29:30;;;;;;;;;;;;;;;;;;5091024;28;19919;-62
2023/09/30 13:31:55;;;;;;;;;;;;;;;;;;5091021;28;20301;-63
2023/09/30 13:34:20;;;;;;;;;;;;;;;;;;5110635;28;19938;-62
2023/09/30 13:36:46;;;;;;;;;;;;;;;;;;5111735;28;20272;-63
2023/09/30 13:39:13;;;;;;;;;;;;;;;;;;5111636;28;19915;-63
2023/09/30 13:41:39;;;;;;;;;;;;;;;;;;5094296;28;19915;-63
2023/09/30 13:44:05;;;;;;;;;;;;;;;;;;5115334;28;19923;-63
2023/09/30 13:46:30;;;;;;;;;;;;;;;;;;5114173;28;19918;-64
2023/09/30 13:48:55;;;;;;;;;;;;;;;;;;5114932;28;19915;-63
2023/09/30 13:51:21;;;;;;;;;;;;;;;;;;5115443;28;20010;-63
2023/09/30 13:53:47;;;;;;;;;;;;;;;;;;5115427;28;20303;-63
2023/09/30 13:56:13;;;;;;;;;;;;;;;;;;5115334;28;19912;-64
2023/09/30 13:58:38;;;;;;;;;;;;;;;;;;5115114;28;19966;-65
2023/09/30 14:01:04;;;;;;;;;;;;;;;;;;5115042;28;19912;-63
2023/09/30 14:03:29;;;;;;;;;;;;;;;;;;5114791;28;19916;-63
2023/09/30 14:05:56;;;;;;;;;;;;;;;;;;5115198;28;19922;-63
2023/09/30 14:08:21;;;;;;;;;;;;;;;;;;5114939;28;19911;-63
2023/09/30 14:10:46;;;;;;;;;;;;;;;;;;5114998;28;19931;-63
2023/09/30 14:13:12;;;;;;;;;;;;;;;;;;5113721;28;19916;-63
2023/09/30 14:15:37;;;;;;;;;;;;;;;;;;5114822;28;19915;-65
2023/09/30 14:18:03;;;;;;;;;;;;;;;;;;5114302;28;19912;-63
2023/09/30 14:20:28;;;;;;;;;;;;;;;;;;5114819;28;19915;-64
2023/09/30 14:22:56;;;;;;;;;;;;;;;;;;5113790;28;19912;-63
2023/09/30 14:25:22;;;;;;;;;;;;;;;;;;5113919;28;19916;-63
2023/09/30 14:27:47;;;;;;;;;;;;;;;;;;5115093;28;19918;-63
2023/09/30 14:30:12;;;;;;;;;;;;;;;;;;5113568;28;19923;-62
2023/09/30 14:32:38;;;;;;;;;;;;;;;;;;5113904;28;19915;-63
2023/09/30 14:35:05;;;;;;;;;;;;;;;;;;5114609;28;20339;-63
2023/09/30 14:37:30;;;;;;;;;;;;;;;;;;5114750;28;19916;-65
2023/09/30 14:39:56;;;;;;;;;;;;;;;;;;5114440;28;19915;-63
2023/09/30 14:42:21;;;;;;;;;;;;;;;;;;5114713;28;19965;-64
2023/09/30 14:44:46;;;;;;;;;;;;;;;;;;5113197;28;19931;-62
2023/09/30 14:47:12;;;;;;;;;;;;;;;;;;5114152;28;19912;-61
2023/09/30 14:49:37;;;;;;;;;;;;;;;;;;5079275;28;20429;-60
2023/09/30 14:52:04;;;;;;;;;;;;;;;;;;5114200;28;19912;-60
2023/09/30 14:54:30;;;;;;;;;;;;;;;;;;5079151;28;19915;-61
2023/09/30 14:56:55;;;;;;;;;;;;;;;;;;5114388;28;20349;-61
2023/09/30 14:59:21;;;;;;;;;;;;;;;;;;5114151;28;20393;-61
2023/09/30 15:01:46;;;;;;;;;;;;;;;;;;5114317;28;20379;-61
2023/09/30 15:04:12;;;;;;;;;;;;;;;;;;5113942;28;19999;-62
2023/09/30 15:06:37;;;;;;;;;;;;;;;;;;5098333;28;20392;-60
2023/09/30 15:09:03;;;;;;;;;;;;;;;;;;5093385;28;19923;-61
2023/09/30 15:11:29;;;;;;;;;;;;;;;;;;5093392;28;19919;-62
2023/09/30 15:13:55;;;;;;;;;;;;;;;;;;5093499;28;19915;-62
2023/09/30 15:16:21;;;;;;;;;;;;;;;;;;5091863;28;19912;-61
2023/09/30 15:18:46;;;;;;;;;;;;;;;;;;5092889;28;20389;-61
2023/09/30 15:21:12;;;;;;;;;;;;;;;;;;5093152;28;20373;-61
2023/09/30 15:23:37;;;;;;;;;;;;;;;;;;5093430;28;19923;-62
2023/09/30 15:26:03;;;;;;;;;;;;;;;;;;5091933;28;19972;-62
2023/09/30 15:28:28;;;;;;;;;;;;;;;;;;5084002;28;20293;-62
2023/09/30 15:30:54;;;;;;;;;;;;;;;;;;5083629;28;20017;-62
2023/09/30 15:33:20;;;;;;;;;;;;;;;;;;5086233;28;19920;-62
2023/09/30 15:35:46;;;;;;;;;;;;;;;;;;5082276;28;20279;-62
2023/09/30 15:38:12;;;;;;;;;;;;;;;;;;5082433;28;19912;-62
2023/09/30 15:40:37;;;;;;;;;;;;;;;;;;5080808;28;19916;-62
2023/09/30 15:43:03;;;;;;;;;;;;;;;;;;5076943;28;19912;-64
2023/09/30 15:45:28;;;;;;;;;;;;;;;;;;5082237;28;19924;-62
2023/09/30 15:47:54;;;;;;;;;;;;;;;;;;5081590;28;19958;-61
2023/09/30 15:50:20;;;;;;;;;;;;;;;;;;5081624;28;19970;-63
2023/09/30 15:52:45;;;;;;;;;;;;;;;;;;5064155;28;19912;-61
2023/09/30 15:55:11;;;;;;;;;;;;;;;;;;5081448;28;19977;-62
2023/09/30 15:57:36;;;;;;;;;;;;;;;;;;5075499;28;19908;-62
2023/09/30 16:00:01;;;;;;;;;;;;;;;;;;5072471;28;20442;-61
2023/09/30 16:02:33;;;;;;;;;;;;;;;;;;5072206;28;19912;-60
2023/09/30 16:04:59;;;;;;;;;;;;;;;;;;5071941;28;19939;-61
2023/09/30 16:07:24;;;;;;;;;;;;;;;;;;5072547;28;20365;-61
2023/09/30 16:09:50;;;;;;;;;;;;;;;;;;5071912;28;19925;-62
2023/09/30 16:12:15;;;;;;;;;;;;;;;;;;5070786;28;19960;-61
2023/09/30 16:14:40;;;;;;;;;;;;;;;;;;5070849;28;19923;-61
2023/09/30 16:17:06;;;;;;;;;;;;;;;;;;5071629;28;20635;-61
2023/09/30 16:19:32;;;;;;;;;;;;;;;;;;5071831;28;19916;-63
2023/09/30 16:21:57;;;;;;;;;;;;;;;;;;5071823;28;19993;-61
2023/09/30 16:24:23;;;;;;;;;;;;;;;;;;5082096;28;20275;-60
2023/09/30 16:26:48;;;;;;;;;;;;;;;;;;5080628;28;19912;-63
2023/09/30 16:29:13;;;;;;;;;;;;;;;;;;5082153;28;19930;-62
2023/09/30 16:31:39;;;;;;;;;;;;;;;;;;5080972;28;20389;-62
2023/09/30 16:34:04;;;;;;;;;;;;;;;;;;5083158;28;20372;-62
2023/09/30 16:36:30;;;;;;;;;;;;;;;;;;5080986;28;20388;-61